sensor_id;sensor_type;location;lat;lon;timestamp;P1;durP1;ratioP1;P2;durP2;ratioP2
56667;SDS011;42542;48.360;10.958;2024-01-27T00:00:31;4.35;;;1.17;;
56667;SDS011;42542;48.360;10.958;2024-01-27T00:03:33;7.75;;;1.42;;
56667;SDS011;42542;48.360;10.958;2024-01-27T00:06:35;6.00;;;1.40;;
56667;SDS011;42542;48.360;10.958;2024-01-27T00:09:38;4.73;;;1.27;;
56667;SDS011;42542;48.360;10.958;2024-01-27T00:12:39;6.15;;;1.55;;
56667;SDS011;42542;48.360;10.958;2024-01-27T00:15:41;6.18;;;1.33;;
56667;SDS011;42542;48.360;10.958;2024-01-27T00:18:44;5.23;;;1.20;;
56667;SDS011;42542;48.360;10.958;2024-01-27T00:21:45;6.07;;;1.40;;
56667;SDS011;42542;48.360;10.958;2024-01-27T00:24:47;5.97;;;1.42;;
56667;SDS011;42542;48.360;10.958;2024-01-27T00:27:49;6.95;;;1.25;;
56667;SDS011;42542;48.360;10.958;2024-01-27T00:30:52;6.97;;;1.52;;
56667;SDS011;42542;48.360;10.958;2024-01-27T00:33:54;5.22;;;1.40;;
56667;SDS011;42542;48.360;10.958;2024-01-27T00:36:55;6.10;;;1.55;;
56667;SDS011;42542;48.360;10.958;2024-01-27T00:39:57;4.83;;;1.30;;
56667;SDS011;42542;48.360;10.958;2024-01-27T00:42:59;5.68;;;1.70;;
56667;SDS011;42542;48.360;10.958;2024-01-27T00:46:01;4.53;;;1.30;;
56667;SDS011;42542;48.360;10.958;2024-01-27T00:49:03;7.03;;;1.40;;
56667;SDS011;42542;48.360;10.958;2024-01-27T00:52:05;6.95;;;1.60;;
56667;SDS011;42542;48.360;10.958;2024-01-27T00:55:08;10.10;;;1.75;;
56667;SDS011;42542;48.360;10.958;2024-01-27T00:58:10;4.65;;;1.33;;
56667;SDS011;42542;48.360;10.958;2024-01-27T01:01:12;8.98;;;1.40;;
56667;SDS011;42542;48.360;10.958;2024-01-27T01:04:14;5.05;;;1.27;;
56667;SDS011;42542;48.360;10.958;2024-01-27T01:07:16;5.15;;;1.10;;
56667;SDS011;42542;48.360;10.958;2024-01-27T01:10:18;4.63;;;1.30;;
56667;SDS011;42542;48.360;10.958;2024-01-27T01:13:21;4.57;;;1.50;;
56667;SDS011;42542;48.360;10.958;2024-01-27T01:16:23;7.95;;;1.50;;
56667;SDS011;42542;48.360;10.958;2024-01-27T01:19:24;6.20;;;1.43;;
56667;SDS011;42542;48.360;10.958;2024-01-27T01:22:26;6.10;;;1.52;;
56667;SDS011;42542;48.360;10.958;2024-01-27T01:25:28;4.55;;;1.38;;
56667;SDS011;42542;48.360;10.958;2024-01-27T01:28:30;4.15;;;1.15;;
56667;SDS011;42542;48.360;10.958;2024-01-27T01:31:35;4.25;;;1.35;;
56667;SDS011;42542;48.360;10.958;2024-01-27T01:34:36;5.22;;;1.30;;
56667;SDS011;42542;48.360;10.958;2024-01-27T01:37:38;6.45;;;1.30;;
56667;SDS011;42542;48.360;10.958;2024-01-27T01:40:41;5.23;;;1.20;;
56667;SDS011;42542;48.360;10.958;2024-01-27T01:43:43;5.25;;;1.50;;
56667;SDS011;42542;48.360;10.958;2024-01-27T01:46:45;10.73;;;1.50;;
56667;SDS011;42542;48.360;10.958;2024-01-27T01:49:48;7.10;;;1.70;;
56667;SDS011;42542;48.360;10.958;2024-01-27T01:52:50;6.53;;;1.42;;
56667;SDS011;42542;48.360;10.958;2024-01-27T01:55:54;6.45;;;1.80;;
56667;SDS011;42542;48.360;10.958;2024-01-27T01:58:56;11.40;;;1.88;;
56667;SDS011;42542;48.360;10.958;2024-01-27T02:01:59;5.25;;;1.50;;
56667;SDS011;42542;48.360;10.958;2024-01-27T02:05:01;6.55;;;1.52;;
56667;SDS011;42542;48.360;10.958;2024-01-27T02:08:03;8.07;;;1.38;;
56667;SDS011;42542;48.360;10.958;2024-01-27T02:11:06;4.70;;;1.30;;
56667;SDS011;42542;48.360;10.958;2024-01-27T02:14:08;5.22;;;1.27;;
56667;SDS011;42542;48.360;10.958;2024-01-27T02:17:09;7.35;;;1.48;;
56667;SDS011;42542;48.360;10.958;2024-01-27T02:20:12;5.67;;;1.27;;
56667;SDS011;42542;48.360;10.958;2024-01-27T02:23:13;5.82;;;1.30;;
56667;SDS011;42542;48.360;10.958;2024-01-27T02:26:15;7.88;;;1.45;;
56667;SDS011;42542;48.360;10.958;2024-01-27T02:29:17;7.53;;;1.70;;
56667;SDS011;42542;48.360;10.958;2024-01-27T02:32:18;8.98;;;1.63;;
56667;SDS011;42542;48.360;10.958;2024-01-27T02:35:21;6.80;;;1.42;;
56667;SDS011;42542;48.360;10.958;2024-01-27T02:38:23;6.28;;;1.40;;
56667;SDS011;42542;48.360;10.958;2024-01-27T02:41:25;9.83;;;1.60;;
56667;SDS011;42542;48.360;10.958;2024-01-27T02:44:27;5.35;;;1.40;;
56667;SDS011;42542;48.360;10.958;2024-01-27T02:47:29;4.95;;;1.25;;
56667;SDS011;42542;48.360;10.958;2024-01-27T02:50:31;5.20;;;1.37;;
56667;SDS011;42542;48.360;10.958;2024-01-27T02:53:33;5.32;;;1.30;;
56667;SDS011;42542;48.360;10.958;2024-01-27T02:56:36;4.93;;;1.30;;
56667;SDS011;42542;48.360;10.958;2024-01-27T02:59:38;5.63;;;1.17;;
56667;SDS011;42542;48.360;10.958;2024-01-27T03:02:41;6.03;;;1.10;;
56667;SDS011;42542;48.360;10.958;2024-01-27T03:05:42;4.13;;;1.30;;
56667;SDS011;42542;48.360;10.958;2024-01-27T03:08:45;7.18;;;1.33;;
56667;SDS011;42542;48.360;10.958;2024-01-27T03:11:47;7.47;;;1.40;;
56667;SDS011;42542;48.360;10.958;2024-01-27T03:14:49;6.15;;;1.48;;
56667;SDS011;42542;48.360;10.958;2024-01-27T03:17:52;5.03;;;1.30;;
56667;SDS011;42542;48.360;10.958;2024-01-27T03:20:54;5.27;;;1.30;;
56667;SDS011;42542;48.360;10.958;2024-01-27T03:23:56;7.65;;;1.67;;
56667;SDS011;42542;48.360;10.958;2024-01-27T03:26:57;5.35;;;1.25;;
56667;SDS011;42542;48.360;10.958;2024-01-27T03:30:00;5.18;;;1.50;;
56667;SDS011;42542;48.360;10.958;2024-01-27T03:33:05;5.97;;;1.55;;
56667;SDS011;42542;48.360;10.958;2024-01-27T03:36:12;4.72;;;1.48;;
56667;SDS011;42542;48.360;10.958;2024-01-27T03:39:15;8.18;;;1.60;;
56667;SDS011;42542;48.360;10.958;2024-01-27T03:42:17;8.17;;;1.60;;
56667;SDS011;42542;48.360;10.958;2024-01-27T03:45:18;7.25;;;1.60;;
56667;SDS011;42542;48.360;10.958;2024-01-27T03:48:20;7.13;;;1.50;;
56667;SDS011;42542;48.360;10.958;2024-01-27T03:51:23;7.10;;;1.53;;
56667;SDS011;42542;48.360;10.958;2024-01-27T03:54:27;8.05;;;1.50;;
56667;SDS011;42542;48.360;10.958;2024-01-27T04:00:57;6.93;;;2.10;;
56667;SDS011;42542;48.360;10.958;2024-01-27T04:03:59;6.97;;;1.75;;
56667;SDS011;42542;48.360;10.958;2024-01-27T04:07:01;5.20;;;1.40;;
56667;SDS011;42542;48.360;10.958;2024-01-27T04:10:04;5.72;;;1.80;;
56667;SDS011;42542;48.360;10.958;2024-01-27T04:13:06;4.60;;;1.50;;
56667;SDS011;42542;48.360;10.958;2024-01-27T04:16:08;4.90;;;1.52;;
56667;SDS011;42542;48.360;10.958;2024-01-27T04:19:10;4.95;;;1.63;;
56667;SDS011;42542;48.360;10.958;2024-01-27T04:22:13;6.70;;;1.60;;
56667;SDS011;42542;48.360;10.958;2024-01-27T04:25:14;9.05;;;1.90;;
56667;SDS011;42542;48.360;10.958;2024-01-27T04:28:16;11.15;;;1.92;;
56667;SDS011;42542;48.360;10.958;2024-01-27T04:31:18;5.47;;;1.73;;
56667;SDS011;42542;48.360;10.958;2024-01-27T04:34:21;6.18;;;1.70;;
56667;SDS011;42542;48.360;10.958;2024-01-27T04:37:23;5.30;;;1.45;;
56667;SDS011;42542;48.360;10.958;2024-01-27T04:40:25;5.80;;;1.55;;
56667;SDS011;42542;48.360;10.958;2024-01-27T04:43:27;8.07;;;1.73;;
56667;SDS011;42542;48.360;10.958;2024-01-27T04:46:31;8.45;;;1.80;;
56667;SDS011;42542;48.360;10.958;2024-01-27T04:49:32;5.55;;;1.60;;
56667;SDS011;42542;48.360;10.958;2024-01-27T04:52:35;8.37;;;1.80;;
56667;SDS011;42542;48.360;10.958;2024-01-27T04:55:37;6.68;;;1.67;;
56667;SDS011;42542;48.360;10.958;2024-01-27T04:58:39;6.30;;;1.83;;
56667;SDS011;42542;48.360;10.958;2024-01-27T05:01:45;8.65;;;1.75;;
56667;SDS011;42542;48.360;10.958;2024-01-27T05:04:47;10.63;;;1.90;;
56667;SDS011;42542;48.360;10.958;2024-01-27T05:07:49;4.82;;;1.50;;
56667;SDS011;42542;48.360;10.958;2024-01-27T05:10:52;10.50;;;1.60;;
56667;SDS011;42542;48.360;10.958;2024-01-27T05:13:59;7.30;;;1.43;;
56667;SDS011;42542;48.360;10.958;2024-01-27T05:17:01;6.38;;;1.70;;
56667;SDS011;42542;48.360;10.958;2024-01-27T05:20:03;5.75;;;1.60;;
56667;SDS011;42542;48.360;10.958;2024-01-27T05:23:06;7.17;;;1.60;;
56667;SDS011;42542;48.360;10.958;2024-01-27T05:26:08;8.20;;;1.83;;
56667;SDS011;42542;48.360;10.958;2024-01-27T05:29:12;4.97;;;1.27;;
56667;SDS011;42542;48.360;10.958;2024-01-27T05:32:14;6.28;;;1.80;;
56667;SDS011;42542;48.360;10.958;2024-01-27T05:35:16;6.50;;;1.90;;
56667;SDS011;42542;48.360;10.958;2024-01-27T05:38:17;6.70;;;2.00;;
56667;SDS011;42542;48.360;10.958;2024-01-27T05:41:19;6.53;;;1.80;;
56667;SDS011;42542;48.360;10.958;2024-01-27T05:44:21;5.83;;;1.57;;
56667;SDS011;42542;48.360;10.958;2024-01-27T05:47:23;6.82;;;1.80;;
56667;SDS011;42542;48.360;10.958;2024-01-27T05:50:25;6.50;;;2.17;;
56667;SDS011;42542;48.360;10.958;2024-01-27T05:53:27;7.90;;;2.00;;
56667;SDS011;42542;48.360;10.958;2024-01-27T05:56:29;5.65;;;1.55;;
56667;SDS011;42542;48.360;10.958;2024-01-27T05:59:31;6.55;;;1.88;;
56667;SDS011;42542;48.360;10.958;2024-01-27T06:02:33;7.70;;;1.65;;
56667;SDS011;42542;48.360;10.958;2024-01-27T06:05:35;8.45;;;2.10;;
56667;SDS011;42542;48.360;10.958;2024-01-27T06:08:38;6.85;;;1.90;;
56667;SDS011;42542;48.360;10.958;2024-01-27T06:11:40;6.38;;;1.70;;
56667;SDS011;42542;48.360;10.958;2024-01-27T06:14:41;4.27;;;1.33;;
56667;SDS011;42542;48.360;10.958;2024-01-27T06:17:44;6.45;;;1.80;;
56667;SDS011;42542;48.360;10.958;2024-01-27T06:20:46;6.15;;;1.55;;
56667;SDS011;42542;48.360;10.958;2024-01-27T06:23:49;7.33;;;1.80;;
56667;SDS011;42542;48.360;10.958;2024-01-27T06:26:51;8.27;;;2.38;;
56667;SDS011;42542;48.360;10.958;2024-01-27T06:29:53;7.82;;;2.05;;
56667;SDS011;42542;48.360;10.958;2024-01-27T06:32:54;6.53;;;1.83;;
56667;SDS011;42542;48.360;10.958;2024-01-27T06:35:56;5.18;;;1.40;;
56667;SDS011;42542;48.360;10.958;2024-01-27T06:38:58;7.53;;;1.83;;
56667;SDS011;42542;48.360;10.958;2024-01-27T06:42:00;7.00;;;2.05;;
56667;SDS011;42542;48.360;10.958;2024-01-27T06:45:01;7.00;;;2.13;;
56667;SDS011;42542;48.360;10.958;2024-01-27T06:48:04;7.75;;;2.10;;
56667;SDS011;42542;48.360;10.958;2024-01-27T06:51:07;8.90;;;1.92;;
56667;SDS011;42542;48.360;10.958;2024-01-27T06:54:10;8.93;;;1.97;;
56667;SDS011;42542;48.360;10.958;2024-01-27T06:57:18;8.88;;;2.15;;
56667;SDS011;42542;48.360;10.958;2024-01-27T07:00:23;5.60;;;1.90;;
56667;SDS011;42542;48.360;10.958;2024-01-27T07:03:25;8.27;;;2.05;;
56667;SDS011;42542;48.360;10.958;2024-01-27T07:06:26;10.35;;;2.90;;
56667;SDS011;42542;48.360;10.958;2024-01-27T07:09:28;14.65;;;4.10;;
56667;SDS011;42542;48.360;10.958;2024-01-27T07:12:30;12.30;;;4.47;;
56667;SDS011;42542;48.360;10.958;2024-01-27T07:15:32;11.10;;;3.97;;
56667;SDS011;42542;48.360;10.958;2024-01-27T07:18:34;10.20;;;2.40;;
56667;SDS011;42542;48.360;10.958;2024-01-27T07:21:37;6.15;;;1.70;;
56667;SDS011;42542;48.360;10.958;2024-01-27T07:24:39;5.53;;;1.87;;
56667;SDS011;42542;48.360;10.958;2024-01-27T07:27:42;6.95;;;2.35;;
56667;SDS011;42542;48.360;10.958;2024-01-27T07:30:45;7.32;;;2.30;;
56667;SDS011;42542;48.360;10.958;2024-01-27T07:33:48;10.20;;;2.42;;
56667;SDS011;42542;48.360;10.958;2024-01-27T07:36:50;8.70;;;2.63;;
56667;SDS011;42542;48.360;10.958;2024-01-27T07:39:52;14.77;;;4.22;;
56667;SDS011;42542;48.360;10.958;2024-01-27T07:42:54;15.07;;;4.55;;
56667;SDS011;42542;48.360;10.958;2024-01-27T07:45:56;19.30;;;5.60;;
56667;SDS011;42542;48.360;10.958;2024-01-27T07:48:58;13.73;;;4.70;;
56667;SDS011;42542;48.360;10.958;2024-01-27T07:52:00;21.33;;;6.00;;
56667;SDS011;42542;48.360;10.958;2024-01-27T07:55:02;24.47;;;6.33;;
56667;SDS011;42542;48.360;10.958;2024-01-27T07:58:05;20.45;;;6.00;;
56667;SDS011;42542;48.360;10.958;2024-01-27T08:01:07;21.92;;;6.28;;
56667;SDS011;42542;48.360;10.958;2024-01-27T08:04:09;21.38;;;6.70;;
56667;SDS011;42542;48.360;10.958;2024-01-27T08:07:11;15.05;;;5.10;;
56667;SDS011;42542;48.360;10.958;2024-01-27T08:10:16;20.42;;;6.20;;
56667;SDS011;42542;48.360;10.958;2024-01-27T08:13:17;11.90;;;3.63;;
56667;SDS011;42542;48.360;10.958;2024-01-27T08:16:20;11.93;;;3.73;;
56667;SDS011;42542;48.360;10.958;2024-01-27T08:19:21;11.27;;;3.40;;
56667;SDS011;42542;48.360;10.958;2024-01-27T08:22:23;7.70;;;2.80;;
56667;SDS011;42542;48.360;10.958;2024-01-27T08:25:25;9.50;;;3.20;;
56667;SDS011;42542;48.360;10.958;2024-01-27T08:28:26;10.32;;;3.20;;
56667;SDS011;42542;48.360;10.958;2024-01-27T08:31:29;9.43;;;2.88;;
56667;SDS011;42542;48.360;10.958;2024-01-27T08:34:31;9.80;;;3.42;;
56667;SDS011;42542;48.360;10.958;2024-01-27T08:37:32;8.50;;;3.38;;
56667;SDS011;42542;48.360;10.958;2024-01-27T08:40:40;9.75;;;3.40;;
56667;SDS011;42542;48.360;10.958;2024-01-27T08:43:42;14.05;;;3.80;;
56667;SDS011;42542;48.360;10.958;2024-01-27T08:46:44;11.83;;;3.50;;
56667;SDS011;42542;48.360;10.958;2024-01-27T08:49:45;11.50;;;3.17;;
56667;SDS011;42542;48.360;10.958;2024-01-27T08:52:47;8.57;;;3.10;;
56667;SDS011;42542;48.360;10.958;2024-01-27T08:55:50;9.33;;;2.90;;
56667;SDS011;42542;48.360;10.958;2024-01-27T08:58:51;10.40;;;3.15;;
56667;SDS011;42542;48.360;10.958;2024-01-27T09:01:54;14.48;;;3.90;;
56667;SDS011;42542;48.360;10.958;2024-01-27T09:04:56;10.95;;;2.95;;
56667;SDS011;42542;48.360;10.958;2024-01-27T09:07:58;9.98;;;3.45;;
56667;SDS011;42542;48.360;10.958;2024-01-27T09:11:03;9.52;;;3.47;;
56667;SDS011;42542;48.360;10.958;2024-01-27T09:14:05;11.00;;;3.10;;
56667;SDS011;42542;48.360;10.958;2024-01-27T09:17:08;13.20;;;3.50;;
56667;SDS011;42542;48.360;10.958;2024-01-27T09:20:11;9.20;;;3.45;;
56667;SDS011;42542;48.360;10.958;2024-01-27T09:23:12;9.20;;;3.20;;
56667;SDS011;42542;48.360;10.958;2024-01-27T09:26:14;8.87;;;3.20;;
56667;SDS011;42542;48.360;10.958;2024-01-27T09:29:19;10.45;;;3.08;;
56667;SDS011;42542;48.360;10.958;2024-01-27T09:32:22;11.13;;;3.35;;
56667;SDS011;42542;48.360;10.958;2024-01-27T09:35:23;11.35;;;3.38;;
56667;SDS011;42542;48.360;10.958;2024-01-27T09:38:25;11.80;;;3.55;;
56667;SDS011;42542;48.360;10.958;2024-01-27T09:41:29;8.27;;;2.95;;
56667;SDS011;42542;48.360;10.958;2024-01-27T09:44:34;8.57;;;2.58;;
56667;SDS011;42542;48.360;10.958;2024-01-27T09:47:38;14.23;;;4.43;;
56667;SDS011;42542;48.360;10.958;2024-01-27T09:50:41;15.75;;;3.30;;
56667;SDS011;42542;48.360;10.958;2024-01-27T09:53:43;9.48;;;2.75;;
56667;SDS011;42542;48.360;10.958;2024-01-27T09:56:45;8.40;;;2.40;;
56667;SDS011;42542;48.360;10.958;2024-01-27T09:59:48;11.73;;;2.67;;
56667;SDS011;42542;48.360;10.958;2024-01-27T10:02:50;9.70;;;2.53;;
56667;SDS011;42542;48.360;10.958;2024-01-27T10:05:53;9.30;;;2.67;;
56667;SDS011;42542;48.360;10.958;2024-01-27T10:08:57;9.48;;;3.13;;
56667;SDS011;42542;48.360;10.958;2024-01-27T10:11:59;7.05;;;2.20;;
56667;SDS011;42542;48.360;10.958;2024-01-27T10:15:03;11.23;;;2.25;;
56667;SDS011;42542;48.360;10.958;2024-01-27T10:18:06;9.57;;;2.40;;
56667;SDS011;42542;48.360;10.958;2024-01-27T10:21:16;8.93;;;2.58;;
56667;SDS011;42542;48.360;10.958;2024-01-27T10:24:19;9.40;;;2.47;;
56667;SDS011;42542;48.360;10.958;2024-01-27T10:27:22;8.37;;;2.50;;
56667;SDS011;42542;48.360;10.958;2024-01-27T10:30:23;6.53;;;2.00;;
56667;SDS011;42542;48.360;10.958;2024-01-27T10:33:26;9.98;;;2.35;;
56667;SDS011;42542;48.360;10.958;2024-01-27T10:36:43;9.82;;;2.45;;
56667;SDS011;42542;48.360;10.958;2024-01-27T10:39:48;12.35;;;2.72;;
56667;SDS011;42542;48.360;10.958;2024-01-27T10:42:51;7.75;;;2.20;;
56667;SDS011;42542;48.360;10.958;2024-01-27T10:46:03;10.32;;;2.42;;
56667;SDS011;42542;48.360;10.958;2024-01-27T10:49:07;6.87;;;2.20;;
56667;SDS011;42542;48.360;10.958;2024-01-27T10:52:13;6.57;;;2.10;;
56667;SDS011;42542;48.360;10.958;2024-01-27T10:55:19;9.60;;;2.47;;
56667;SDS011;42542;48.360;10.958;2024-01-27T10:58:23;9.27;;;2.07;;
56667;SDS011;42542;48.360;10.958;2024-01-27T11:01:25;10.00;;;2.45;;
56667;SDS011;42542;48.360;10.958;2024-01-27T11:04:28;10.30;;;2.70;;
56667;SDS011;42542;48.360;10.958;2024-01-27T11:07:34;12.50;;;3.15;;
56667;SDS011;42542;48.360;10.958;2024-01-27T11:10:37;9.52;;;2.40;;
56667;SDS011;42542;48.360;10.958;2024-01-27T11:13:39;10.82;;;3.60;;
56667;SDS011;42542;48.360;10.958;2024-01-27T11:16:42;11.63;;;3.30;;
56667;SDS011;42542;48.360;10.958;2024-01-27T11:19:50;10.53;;;2.50;;
56667;SDS011;42542;48.360;10.958;2024-01-27T11:22:51;10.05;;;2.85;;
56667;SDS011;42542;48.360;10.958;2024-01-27T11:26:02;10.23;;;2.95;;
56667;SDS011;42542;48.360;10.958;2024-01-27T11:29:06;10.00;;;2.87;;
56667;SDS011;42542;48.360;10.958;2024-01-27T11:32:08;10.32;;;2.92;;
56667;SDS011;42542;48.360;10.958;2024-01-27T11:35:16;11.65;;;2.40;;
56667;SDS011;42542;48.360;10.958;2024-01-27T11:38:19;9.15;;;2.50;;
56667;SDS011;42542;48.360;10.958;2024-01-27T11:41:25;11.65;;;2.72;;
56667;SDS011;42542;48.360;10.958;2024-01-27T11:44:30;11.40;;;3.05;;
56667;SDS011;42542;48.360;10.958;2024-01-27T11:47:35;10.15;;;2.70;;
56667;SDS011;42542;48.360;10.958;2024-01-27T11:50:36;10.50;;;2.17;;
56667;SDS011;42542;48.360;10.958;2024-01-27T11:53:38;7.95;;;2.20;;
56667;SDS011;42542;48.360;10.958;2024-01-27T11:56:40;10.73;;;2.53;;
56667;SDS011;42542;48.360;10.958;2024-01-27T11:59:42;10.67;;;2.90;;
56667;SDS011;42542;48.360;10.958;2024-01-27T12:02:44;10.50;;;2.75;;
56667;SDS011;42542;48.360;10.958;2024-01-27T12:05:46;8.88;;;2.78;;
56667;SDS011;42542;48.360;10.958;2024-01-27T12:08:47;10.75;;;3.10;;
56667;SDS011;42542;48.360;10.958;2024-01-27T12:11:51;10.45;;;2.65;;
56667;SDS011;42542;48.360;10.958;2024-01-27T12:14:53;9.90;;;2.53;;
56667;SDS011;42542;48.360;10.958;2024-01-27T12:17:55;10.60;;;2.38;;
56667;SDS011;42542;48.360;10.958;2024-01-27T12:20:57;9.50;;;2.40;;
56667;SDS011;42542;48.360;10.958;2024-01-27T12:23:59;10.35;;;2.78;;
56667;SDS011;42542;48.360;10.958;2024-01-27T12:27:02;8.98;;;2.47;;
56667;SDS011;42542;48.360;10.958;2024-01-27T12:30:04;8.60;;;2.53;;
56667;SDS011;42542;48.360;10.958;2024-01-27T12:33:09;11.50;;;2.63;;
56667;SDS011;42542;48.360;10.958;2024-01-27T12:36:14;9.95;;;2.63;;
56667;SDS011;42542;48.360;10.958;2024-01-27T12:39:15;11.48;;;3.08;;
56667;SDS011;42542;48.360;10.958;2024-01-27T12:42:18;8.40;;;2.45;;
56667;SDS011;42542;48.360;10.958;2024-01-27T12:45:19;10.00;;;2.85;;
56667;SDS011;42542;48.360;10.958;2024-01-27T12:48:22;8.10;;;2.58;;
56667;SDS011;42542;48.360;10.958;2024-01-27T12:51:24;8.77;;;2.40;;
56667;SDS011;42542;48.360;10.958;2024-01-27T12:54:26;10.25;;;2.85;;
56667;SDS011;42542;48.360;10.958;2024-01-27T12:57:28;11.55;;;2.80;;
56667;SDS011;42542;48.360;10.958;2024-01-27T13:00:31;12.77;;;2.63;;
56667;SDS011;42542;48.360;10.958;2024-01-27T13:03:32;10.52;;;2.90;;
56667;SDS011;42542;48.360;10.958;2024-01-27T13:06:36;8.93;;;2.63;;
56667;SDS011;42542;48.360;10.958;2024-01-27T13:09:39;8.45;;;2.38;;
56667;SDS011;42542;48.360;10.958;2024-01-27T13:12:41;10.98;;;3.00;;
56667;SDS011;42542;48.360;10.958;2024-01-27T13:15:43;10.73;;;3.00;;
56667;SDS011;42542;48.360;10.958;2024-01-27T13:18:46;9.18;;;2.60;;
56667;SDS011;42542;48.360;10.958;2024-01-27T13:21:48;11.00;;;2.67;;
56667;SDS011;42542;48.360;10.958;2024-01-27T13:24:50;11.30;;;3.05;;
56667;SDS011;42542;48.360;10.958;2024-01-27T13:27:52;6.95;;;2.50;;
56667;SDS011;42542;48.360;10.958;2024-01-27T13:30:53;14.10;;;3.03;;
56667;SDS011;42542;48.360;10.958;2024-01-27T13:33:58;10.30;;;2.35;;
56667;SDS011;42542;48.360;10.958;2024-01-27T13:37:03;10.35;;;2.67;;
56667;SDS011;42542;48.360;10.958;2024-01-27T13:40:33;10.27;;;2.80;;
56667;SDS011;42542;48.360;10.958;2024-01-27T13:43:34;9.18;;;2.55;;
56667;SDS011;42542;48.360;10.958;2024-01-27T13:46:36;11.07;;;2.55;;
56667;SDS011;42542;48.360;10.958;2024-01-27T13:49:38;9.07;;;2.67;;
56667;SDS011;42542;48.360;10.958;2024-01-27T13:52:41;7.80;;;2.27;;
56667;SDS011;42542;48.360;10.958;2024-01-27T13:55:47;11.60;;;2.53;;
56667;SDS011;42542;48.360;10.958;2024-01-27T13:58:50;12.25;;;3.13;;
56667;SDS011;42542;48.360;10.958;2024-01-27T14:01:53;11.63;;;2.97;;
56667;SDS011;42542;48.360;10.958;2024-01-27T14:04:55;10.10;;;2.67;;
56667;SDS011;42542;48.360;10.958;2024-01-27T14:07:56;8.45;;;2.58;;
56667;SDS011;42542;48.360;10.958;2024-01-27T14:10:58;7.60;;;2.47;;
56667;SDS011;42542;48.360;10.958;2024-01-27T14:14:00;12.05;;;2.72;;
56667;SDS011;42542;48.360;10.958;2024-01-27T14:17:03;6.68;;;2.20;;
56667;SDS011;42542;48.360;10.958;2024-01-27T14:20:04;10.00;;;2.50;;
56667;SDS011;42542;48.360;10.958;2024-01-27T14:23:07;11.00;;;2.40;;
56667;SDS011;42542;48.360;10.958;2024-01-27T14:26:09;14.20;;;2.33;;
56667;SDS011;42542;48.360;10.958;2024-01-27T14:29:16;7.50;;;2.30;;
56667;SDS011;42542;48.360;10.958;2024-01-27T14:32:18;10.73;;;2.50;;
56667;SDS011;42542;48.360;10.958;2024-01-27T14:35:20;7.82;;;2.15;;
56667;SDS011;42542;48.360;10.958;2024-01-27T14:38:22;9.55;;;2.60;;
56667;SDS011;42542;48.360;10.958;2024-01-27T14:41:24;7.97;;;2.20;;
56667;SDS011;42542;48.360;10.958;2024-01-27T14:44:26;8.07;;;2.10;;
56667;SDS011;42542;48.360;10.958;2024-01-27T14:47:27;8.25;;;1.98;;
56667;SDS011;42542;48.360;10.958;2024-01-27T14:50:30;7.88;;;2.15;;
56667;SDS011;42542;48.360;10.958;2024-01-27T14:53:32;9.83;;;1.80;;
56667;SDS011;42542;48.360;10.958;2024-01-27T14:56:34;8.77;;;2.08;;
56667;SDS011;42542;48.360;10.958;2024-01-27T14:59:37;13.30;;;2.00;;
56667;SDS011;42542;48.360;10.958;2024-01-27T15:02:41;8.50;;;1.87;;
56667;SDS011;42542;48.360;10.958;2024-01-27T15:05:46;7.00;;;1.90;;
56667;SDS011;42542;48.360;10.958;2024-01-27T15:08:48;11.98;;;1.95;;
56667;SDS011;42542;48.360;10.958;2024-01-27T15:11:50;6.18;;;1.70;;
56667;SDS011;42542;48.360;10.958;2024-01-27T15:14:53;6.88;;;1.80;;
56667;SDS011;42542;48.360;10.958;2024-01-27T15:17:56;8.75;;;1.95;;
56667;SDS011;42542;48.360;10.958;2024-01-27T15:21:02;7.03;;;1.80;;
56667;SDS011;42542;48.360;10.958;2024-01-27T15:24:05;7.50;;;1.83;;
56667;SDS011;42542;48.360;10.958;2024-01-27T15:27:08;7.30;;;1.90;;
56667;SDS011;42542;48.360;10.958;2024-01-27T15:30:13;6.90;;;1.70;;
56667;SDS011;42542;48.360;10.958;2024-01-27T15:33:15;7.90;;;2.57;;
56667;SDS011;42542;48.360;10.958;2024-01-27T15:36:17;8.65;;;2.15;;
56667;SDS011;42542;48.360;10.958;2024-01-27T15:39:20;7.05;;;2.25;;
56667;SDS011;42542;48.360;10.958;2024-01-27T15:42:22;7.93;;;2.60;;
56667;SDS011;42542;48.360;10.958;2024-01-27T15:45:24;7.80;;;2.80;;
56667;SDS011;42542;48.360;10.958;2024-01-27T15:48:26;7.53;;;2.55;;
56667;SDS011;42542;48.360;10.958;2024-01-27T15:51:30;8.77;;;2.80;;
56667;SDS011;42542;48.360;10.958;2024-01-27T15:54:32;8.60;;;2.40;;
56667;SDS011;42542;48.360;10.958;2024-01-27T15:57:33;8.85;;;2.60;;
56667;SDS011;42542;48.360;10.958;2024-01-27T16:00:36;8.18;;;2.42;;
56667;SDS011;42542;48.360;10.958;2024-01-27T16:03:38;8.30;;;2.63;;
56667;SDS011;42542;48.360;10.958;2024-01-27T16:06:40;10.27;;;2.90;;
56667;SDS011;42542;48.360;10.958;2024-01-27T16:09:45;9.48;;;2.40;;
56667;SDS011;42542;48.360;10.958;2024-01-27T16:12:47;9.25;;;2.40;;
56667;SDS011;42542;48.360;10.958;2024-01-27T16:15:50;8.23;;;2.25;;
56667;SDS011;42542;48.360;10.958;2024-01-27T16:18:52;8.90;;;2.38;;
56667;SDS011;42542;48.360;10.958;2024-01-27T16:21:55;9.25;;;2.60;;
56667;SDS011;42542;48.360;10.958;2024-01-27T16:24:57;8.23;;;2.13;;
56667;SDS011;42542;48.360;10.958;2024-01-27T16:28:00;8.70;;;2.50;;
56667;SDS011;42542;48.360;10.958;2024-01-27T16:31:01;9.15;;;2.17;;
56667;SDS011;42542;48.360;10.958;2024-01-27T16:34:03;11.93;;;4.07;;
56667;SDS011;42542;48.360;10.958;2024-01-27T16:37:05;15.45;;;4.70;;
56667;SDS011;42542;48.360;10.958;2024-01-27T16:40:07;14.77;;;4.70;;
56667;SDS011;42542;48.360;10.958;2024-01-27T16:43:09;16.52;;;4.88;;
56667;SDS011;42542;48.360;10.958;2024-01-27T16:46:11;11.43;;;3.85;;
56667;SDS011;42542;48.360;10.958;2024-01-27T16:49:13;12.18;;;3.35;;
56667;SDS011;42542;48.360;10.958;2024-01-27T16:52:15;12.98;;;3.50;;
56667;SDS011;42542;48.360;10.958;2024-01-27T16:55:17;11.97;;;3.07;;
56667;SDS011;42542;48.360;10.958;2024-01-27T16:58:19;9.93;;;2.97;;
56667;SDS011;42542;48.360;10.958;2024-01-27T17:01:21;10.25;;;2.95;;
56667;SDS011;42542;48.360;10.958;2024-01-27T17:04:23;9.57;;;3.03;;
56667;SDS011;42542;48.360;10.958;2024-01-27T17:07:24;11.43;;;3.42;;
56667;SDS011;42542;48.360;10.958;2024-01-27T17:10:26;11.30;;;2.90;;
56667;SDS011;42542;48.360;10.958;2024-01-27T17:13:28;14.00;;;3.30;;
56667;SDS011;42542;48.360;10.958;2024-01-27T17:16:30;13.50;;;3.70;;
56667;SDS011;42542;48.360;10.958;2024-01-27T17:19:33;9.80;;;3.03;;
56667;SDS011;42542;48.360;10.958;2024-01-27T17:22:35;11.32;;;3.13;;
56667;SDS011;42542;48.360;10.958;2024-01-27T17:25:37;13.60;;;3.60;;
56667;SDS011;42542;48.360;10.958;2024-01-27T17:28:39;10.50;;;3.50;;
56667;SDS011;42542;48.360;10.958;2024-01-27T17:31:42;8.98;;;3.50;;
56667;SDS011;42542;48.360;10.958;2024-01-27T17:34:45;12.77;;;3.73;;
56667;SDS011;42542;48.360;10.958;2024-01-27T17:37:46;13.65;;;4.28;;
56667;SDS011;42542;48.360;10.958;2024-01-27T17:40:49;13.05;;;3.97;;
56667;SDS011;42542;48.360;10.958;2024-01-27T17:43:51;16.55;;;4.95;;
56667;SDS011;42542;48.360;10.958;2024-01-27T17:46:53;13.48;;;4.40;;
56667;SDS011;42542;48.360;10.958;2024-01-27T17:49:55;15.75;;;4.88;;
56667;SDS011;42542;48.360;10.958;2024-01-27T17:52:57;13.43;;;5.47;;
56667;SDS011;42542;48.360;10.958;2024-01-27T17:55:59;19.93;;;6.27;;
56667;SDS011;42542;48.360;10.958;2024-01-27T17:59:02;24.70;;;8.55;;
56667;SDS011;42542;48.360;10.958;2024-01-27T18:02:05;39.15;;;12.52;;